Time;durP1;ratioP1;P1;durP2;ratioP2;P2;SDS_P1;SDS_P2;PMS_P1;PMS_P2;Temp;Humidity;BMP_temperature;BMP_pressure;BME280_temperature;BME280_humidity;BME280_pressure;Samples;Min_cycle;Max_cycle;Signal;HPM_P1;HPM_P2
2022/03/15 00:02:12;;;;;;;12.00;4.20;;;;;;;;;;5006934;28;20435;-71
2022/03/15 00:04:39;;;;;;;8.20;3.35;;;;;;;;;;5006243;28;20053;-71
2022/03/15 00:07:05;;;;;;;6.10;3.65;;;;;;;;;;5007282;28;20030;-71
2022/03/15 00:09:31;;;;;;;6.85;3.85;;;;;;;;;;5006573;28;20077;-71
2022/03/15 00:11:57;;;;;;;8.52;4.22;;;;;;;;;;4982647;28;20022;-71
2022/03/15 00:14:25;;;;;;;8.00;3.00;;;;;;;;;;5007059;28;20029;-71
2022/03/15 00:16:52;;;;;;;8.05;2.90;;;;;;;;;;5001345;28;20500;-72
2022/03/15 00:19:18;;;;;;;7.90;3.03;;;;;;;;;;5002384;28;20036;-71
2022/03/15 00:21:45;;;;;;;4.72;2.90;;;;;;;;;;5007901;28;20514;-73
2022/03/15 00:24:11;;;;;;;6.80;2.78;;;;;;;;;;4984355;28;20084;-71
2022/03/15 00:26:37;;;;;;;8.95;3.00;;;;;;;;;;5005714;28;20034;-71
2022/03/15 00:29:03;;;;;;;10.32;3.58;;;;;;;;;;5008246;28;20124;-71
2022/03/15 00:31:29;;;;;;;10.48;3.53;;;;;;;;;;5005974;28;20022;-71
2022/03/15 00:33:56;;;;;;;6.40;2.97;;;;;;;;;;5007879;28;20028;-71
2022/03/15 00:36:25;;;;;;;6.43;3.17;;;;;;;;;;5006312;28;20033;-71
2022/03/15 00:38:51;;;;;;;7.28;3.28;;;;;;;;;;5006373;28;20505;-71
2022/03/15 00:41:17;;;;;;;8.65;4.00;;;;;;;;;;5006787;28;20365;-72
2022/03/15 00:43:43;;;;;;;9.10;3.65;;;;;;;;;;5006539;28;21077;-70
2022/03/15 00:46:09;;;;;;;8.15;3.20;;;;;;;;;;4987374;28;20026;-70
2022/03/15 00:48:35;;;;;;;7.47;4.60;;;;;;;;;;5007538;28;20022;-70
2022/03/15 00:51:02;;;;;;;8.80;4.82;;;;;;;;;;5008194;28;20034;-70
2022/03/15 00:53:28;;;;;;;5.53;3.45;;;;;;;;;;5010350;28;20105;-71
2022/03/15 00:55:54;;;;;;;7.47;3.28;;;;;;;;;;4990136;28;20034;-71
2022/03/15 00:58:20;;;;;;;8.15;3.05;;;;;;;;;;5004064;28;20022;-71
2022/03/15 01:00:48;;;;;;;3.70;2.90;;;;;;;;;;4997630;28;20823;-72
2022/03/15 01:03:14;;;;;;;11.10;3.70;;;;;;;;;;5008939;28;20026;-70
2022/03/15 01:05:40;;;;;;;7.53;3.08;;;;;;;;;;5007994;28;20029;-71
2022/03/15 01:08:06;;;;;;;6.55;3.15;;;;;;;;;;5005576;28;20322;-71
2022/03/15 01:10:34;;;;;;;7.78;2.83;;;;;;;;;;5010424;28;20080;-72
2022/03/15 01:13:00;;;;;;;8.95;3.25;;;;;;;;;;5007225;28;20052;-71
2022/03/15 01:15:26;;;;;;;5.57;2.97;;;;;;;;;;5010933;28;20026;-71
2022/03/15 01:17:52;;;;;;;5.40;2.75;;;;;;;;;;5005742;28;20057;-70
2022/03/15 01:20:19;;;;;;;5.15;3.22;;;;;;;;;;5008787;28;20832;-71
2022/03/15 01:22:45;;;;;;;5.45;2.83;;;;;;;;;;5009972;28;20496;-72
2022/03/15 01:25:11;;;;;;;7.22;2.95;;;;;;;;;;5008659;28;20807;-71
2022/03/15 01:27:37;;;;;;;4.70;2.55;;;;;;;;;;5005861;28;20504;-71
2022/03/15 01:30:03;;;;;;;6.40;2.67;;;;;;;;;;5008403;28;20109;-71
2022/03/15 01:32:29;;;;;;;7.90;3.00;;;;;;;;;;5006597;28;20034;-71
2022/03/15 01:34:56;;;;;;;6.68;3.70;;;;;;;;;;5009220;28;20037;-72
2022/03/15 01:37:22;;;;;;;3.50;2.72;;;;;;;;;;5008341;28;20397;-71
2022/03/15 01:39:48;;;;;;;4.38;2.67;;;;;;;;;;5011478;28;20084;-72
2022/03/15 01:42:14;;;;;;;6.80;2.90;;;;;;;;;;5006133;28;20037;-71
2022/03/15 01:44:45;;;;;;;8.95;3.88;;;;;;;;;;5009280;28;20057;-71
2022/03/15 01:47:11;;;;;;;3.67;3.03;;;;;;;;;;5006841;28;20215;-71
2022/03/15 01:49:37;;;;;;;5.80;2.67;;;;;;;;;;5010482;28;20069;-70
2022/03/15 01:52:04;;;;;;;6.90;2.55;;;;;;;;;;5007301;28;20032;-70
2022/03/15 01:54:30;;;;;;;4.38;2.20;;;;;;;;;;5009220;28;20026;-71
2022/03/15 01:56:56;;;;;;;6.32;2.50;;;;;;;;;;5008971;28;20030;-71
2022/03/15 01:59:23;;;;;;;6.40;2.70;;;;;;;;;;5009114;28;20068;-71
2022/03/15 02:01:49;;;;;;;6.05;2.50;;;;;;;;;;5004324;28;20072;-72
2022/03/15 02:04:15;;;;;;;5.75;2.72;;;;;;;;;;4991752;28;20626;-72
2022/03/15 02:06:42;;;;;;;5.47;1.90;;;;;;;;;;4990483;28;20089;-72
2022/03/15 02:09:09;;;;;;;3.58;2.35;;;;;;;;;;5007691;28;20077;-72
2022/03/15 02:11:35;;;;;;;9.77;2.70;;;;;;;;;;5011933;28;20500;-71
2022/03/15 02:14:02;;;;;;;4.63;2.30;;;;;;;;;;5001348;28;20648;-71
2022/03/15 02:16:28;;;;;;;5.95;2.13;;;;;;;;;;4990065;28;20025;-71
2022/03/15 02:18:55;;;;;;;3.95;2.13;;;;;;;;;;5007049;28;20030;-71
2022/03/15 02:21:22;;;;;;;6.28;2.38;;;;;;;;;;4992001;28;20034;-72
2022/03/15 02:23:48;;;;;;;3.97;1.92;;;;;;;;;;5008372;28;20026;-71
2022/03/15 02:26:16;;;;;;;3.25;1.80;;;;;;;;;;5006505;28;20025;-71
2022/03/15 02:28:43;;;;;;;8.73;2.20;;;;;;;;;;5004991;28;20028;-71
2022/03/15 02:31:09;;;;;;;8.18;2.30;;;;;;;;;;5007844;28;20480;-71
2022/03/15 02:33:35;;;;;;;7.82;2.30;;;;;;;;;;5008933;28;20034;-72
2022/03/15 02:36:01;;;;;;;8.20;2.22;;;;;;;;;;5005336;28;20111;-72
2022/03/15 02:38:27;;;;;;;4.13;2.22;;;;;;;;;;5005909;28;20091;-71
2022/03/15 02:40:54;;;;;;;3.75;2.42;;;;;;;;;;5009030;28;20022;-70
2022/03/15 02:43:20;;;;;;;4.50;1.90;;;;;;;;;;5007261;28;20851;-72
2022/03/15 02:45:46;;;;;;;6.43;1.90;;;;;;;;;;5008482;28;20109;-72
2022/03/15 02:48:12;;;;;;;6.63;2.30;;;;;;;;;;5004168;28;20045;-72
2022/03/15 02:50:38;;;;;;;5.10;1.95;;;;;;;;;;5009297;28;20109;-71
2022/03/15 02:53:04;;;;;;;4.65;2.22;;;;;;;;;;5008094;28;20014;-71
2022/03/15 02:55:32;;;;;;;3.72;2.17;;;;;;;;;;5008945;28;20147;-72
2022/03/15 02:57:59;;;;;;;3.85;2.28;;;;;;;;;;5005556;28;20104;-72
2022/03/15 03:00:27;;;;;;;5.57;2.08;;;;;;;;;;5007290;28;20120;-71
2022/03/15 03:02:53;;;;;;;3.40;1.50;;;;;;;;;;5005214;28;20499;-72
2022/03/15 03:05:19;;;;;;;4.28;1.88;;;;;;;;;;5005620;28;20037;-72
2022/03/15 03:07:45;;;;;;;9.10;2.30;;;;;;;;;;5006481;28;20033;-71
2022/03/15 03:10:12;;;;;;;3.30;1.80;;;;;;;;;;5005587;28;20041;-71
2022/03/15 03:12:41;;;;;;;4.32;2.05;;;;;;;;;;5007523;28;20026;-72
2022/03/15 03:15:14;;;;;;;6.13;2.00;;;;;;;;;;5007888;28;20018;-72
2022/03/15 03:17:41;;;;;;;7.28;2.22;;;;;;;;;;5008594;28;20026;-72
2022/03/15 03:20:12;;;;;;;3.72;1.77;;;;;;;;;;5006938;28;20448;-72
2022/03/15 03:22:38;;;;;;;3.33;1.65;;;;;;;;;;5002253;28;20109;-72
2022/03/15 03:25:05;;;;;;;5.20;1.98;;;;;;;;;;5008055;28;20037;-72
2022/03/15 03:27:32;;;;;;;5.38;1.90;;;;;;;;;;5008074;28;20042;-72
2022/03/15 03:29:58;;;;;;;5.85;1.60;;;;;;;;;;5007250;28;20106;-71
2022/03/15 03:32:25;;;;;;;4.45;1.77;;;;;;;;;;5004409;28;20454;-72
2022/03/15 03:34:51;;;;;;;3.63;1.92;;;;;;;;;;5006834;28;20319;-72
2022/03/15 03:37:17;;;;;;;4.03;1.75;;;;;;;;;;5005459;28;20125;-71
2022/03/15 03:39:43;;;;;;;7.93;1.90;;;;;;;;;;5006286;28;20050;-72
2022/03/15 03:42:09;;;;;;;3.63;1.75;;;;;;;;;;5005069;28;20030;-71
2022/03/15 03:44:36;;;;;;;5.25;1.77;;;;;;;;;;5007009;28;20030;-71
2022/03/15 03:47:02;;;;;;;3.60;1.63;;;;;;;;;;5007209;28;20034;-71
2022/03/15 03:49:30;;;;;;;5.85;1.98;;;;;;;;;;5007897;28;20797;-71
2022/03/15 03:51:57;;;;;;;4.22;1.95;;;;;;;;;;5004575;28;20018;-72
2022/03/15 03:54:24;;;;;;;1.52;1.42;;;;;;;;;;5008265;28;20044;-71
2022/03/15 03:56:50;;;;;;;7.75;2.97;;;;;;;;;;5006716;28;20026;-71
2022/03/15 03:59:17;;;;;;;4.82;1.85;;;;;;;;;;5006973;28;20782;-72
2022/03/15 04:01:43;;;;;;;7.55;2.00;;;;;;;;;;5007586;28;20037;-73
2022/03/15 04:04:10;;;;;;;3.60;1.70;;;;;;;;;;5004532;28;20064;-72
2022/03/15 04:06:37;;;;;;;3.75;2.05;;;;;;;;;;5002573;28;20026;-72
2022/03/15 04:09:06;;;;;;;4.85;1.73;;;;;;;;;;4981565;28;20084;-72
2022/03/15 04:11:33;;;;;;;4.07;1.70;;;;;;;;;;5004964;28;20018;-71
2022/03/15 04:13:59;;;;;;;3.85;1.58;;;;;;;;;;5003455;28;20026;-71
2022/03/15 04:16:26;;;;;;;6.60;2.30;;;;;;;;;;5001304;28;20030;-72
2022/03/15 04:18:52;;;;;;;4.28;1.60;;;;;;;;;;5008564;28;20034;-71
2022/03/15 04:21:18;;;;;;;2.15;1.83;;;;;;;;;;5008168;28;20105;-71
2022/03/15 04:23:47;;;;;;;3.65;1.77;;;;;;;;;;5010093;28;20033;-71
2022/03/15 04:26:13;;;;;;;3.28;1.48;;;;;;;;;;5011156;28;20469;-71
2022/03/15 04:28:39;;;;;;;2.92;1.30;;;;;;;;;;5010744;28;20037;-70
2022/03/15 04:31:05;;;;;;;4.03;1.67;;;;;;;;;;5010140;28;20120;-71
2022/03/15 04:33:31;;;;;;;3.95;2.08;;;;;;;;;;4992044;28;20036;-71
2022/03/15 04:35:58;;;;;;;1.65;1.50;;;;;;;;;;5011265;28;20480;-71
2022/03/15 04:38:24;;;;;;;4.80;1.95;;;;;;;;;;4992789;28;20099;-70
2022/03/15 04:40:50;;;;;;;6.03;1.50;;;;;;;;;;4991875;28;20515;-71
2022/03/15 04:43:16;;;;;;;5.53;1.60;;;;;;;;;;5008991;28;20030;-71
2022/03/15 04:45:42;;;;;;;4.72;1.80;;;;;;;;;;5010748;28;20650;-71
2022/03/15 04:48:08;;;;;;;2.90;1.90;;;;;;;;;;5009667;28;20030;-71
2022/03/15 04:50:34;;;;;;;1.90;1.30;;;;;;;;;;5008866;28;20065;-71
2022/03/15 04:53:00;;;;;;;5.45;1.50;;;;;;;;;;5011338;28;21033;-71
2022/03/15 04:55:26;;;;;;;2.60;1.85;;;;;;;;;;5005585;28;20034;-72
2022/03/15 04:57:52;;;;;;;5.55;1.75;;;;;;;;;;5009682;28;20030;-71
2022/03/15 05:00:19;;;;;;;2.17;1.77;;;;;;;;;;5009782;28;20113;-71
2022/03/15 05:02:45;;;;;;;4.20;1.48;;;;;;;;;;5009234;28;20061;-72
2022/03/15 05:05:14;;;;;;;3.70;1.83;;;;;;;;;;4992044;28;20060;-72
2022/03/15 05:07:41;;;;;;;5.82;1.90;;;;;;;;;;5010733;28;20018;-72
2022/03/15 05:12:52;;;;;;;4.05;2.13;;;;;;;;;;5010079;28;20096;-72
2022/03/15 05:15:18;;;;;;;4.93;1.73;;;;;;;;;;5007798;28;20026;-71
2022/03/15 05:17:44;;;;;;;2.55;1.67;;;;;;;;;;4990823;28;20036;-71
2022/03/15 05:20:11;;;;;;;3.70;1.80;;;;;;;;;;5009568;28;20026;-70
2022/03/15 05:22:37;;;;;;;4.25;1.83;;;;;;;;;;4989462;28;20404;-71
2022/03/15 05:25:04;;;;;;;3.38;1.73;;;;;;;;;;5009723;28;20038;-72
2022/03/15 05:27:33;;;;;;;5.63;1.90;;;;;;;;;;5007988;28;20545;-72
2022/03/15 05:30:00;;;;;;;1.77;1.45;;;;;;;;;;5006189;28;20088;-71
2022/03/15 05:32:26;;;;;;;3.13;1.95;;;;;;;;;;5008268;28;20049;-71
2022/03/15 05:34:52;;;;;;;3.53;1.80;;;;;;;;;;4985155;28;20057;-71
2022/03/15 05:37:18;;;;;;;3.45;1.75;;;;;;;;;;5008906;28;20022;-71
2022/03/15 05:39:44;;;;;;;5.47;1.85;;;;;;;;;;4993183;28;20144;-71
2022/03/15 05:42:13;;;;;;;4.90;1.83;;;;;;;;;;5005858;28;20034;-71
2022/03/15 05:44:39;;;;;;;7.78;2.67;;;;;;;;;;5006009;28;20534;-71
2022/03/15 05:47:06;;;;;;;6.85;2.00;;;;;;;;;;5009235;28;20113;-71
2022/03/15 05:49:32;;;;;;;4.45;1.67;;;;;;;;;;5008462;28;20507;-71
2022/03/15 05:51:58;;;;;;;2.22;1.70;;;;;;;;;;5009254;28;20032;-71
2022/03/15 05:54:24;;;;;;;5.15;2.20;;;;;;;;;;5007954;28;20041;-71
2022/03/15 05:56:50;;;;;;;5.25;2.10;;;;;;;;;;5009468;28;20061;-72
2022/03/15 05:59:16;;;;;;;5.72;2.15;;;;;;;;;;5008969;28;20025;-72
2022/03/15 06:01:42;;;;;;;2.95;1.98;;;;;;;;;;5009884;28;20396;-72
2022/03/15 06:04:10;;;;;;;3.33;1.55;;;;;;;;;;5009333;28;20025;-72
2022/03/15 06:06:36;;;;;;;5.15;1.83;;;;;;;;;;4991137;28;20091;-71
2022/03/15 06:09:02;;;;;;;2.22;1.65;;;;;;;;;;4990458;28;20038;-72
2022/03/15 06:11:32;;;;;;;5.13;1.45;;;;;;;;;;5007382;28;20025;-73
2022/03/15 06:13:59;;;;;;;3.80;1.90;;;;;;;;;;5003178;28;20484;-71
2022/03/15 06:16:25;;;;;;;6.20;2.20;;;;;;;;;;5008304;28;20029;-71
2022/03/15 06:18:51;;;;;;;6.93;1.90;;;;;;;;;;5007397;28;20081;-71
2022/03/15 06:21:18;;;;;;;7.95;2.25;;;;;;;;;;5007420;28;20022;-71
2022/03/15 06:23:44;;;;;;;2.65;1.70;;;;;;;;;;5005714;28;20041;-71
2022/03/15 06:26:10;;;;;;;2.88;2.25;;;;;;;;;;5009890;28;20065;-71
2022/03/15 06:28:37;;;;;;;6.45;1.80;;;;;;;;;;5008527;28;20033;-71
2022/03/15 06:31:04;;;;;;;3.92;2.13;;;;;;;;;;5008715;28;20079;-72
2022/03/15 06:33:31;;;;;;;5.28;2.00;;;;;;;;;;5008311;28;20033;-72
2022/03/15 06:35:57;;;;;;;3.25;1.42;;;;;;;;;;5012380;28;20058;-72
2022/03/15 06:38:24;;;;;;;7.60;1.92;;;;;;;;;;5004952;28;20057;-71
2022/03/15 06:40:50;;;;;;;5.43;1.70;;;;;;;;;;5008440;28;20117;-72
2022/03/15 06:43:16;;;;;;;2.67;1.90;;;;;;;;;;5003890;28;20037;-72
2022/03/15 06:45:42;;;;;;;5.75;1.70;;;;;;;;;;5004728;28;20565;-71
2022/03/15 06:48:09;;;;;;;2.00;1.63;;;;;;;;;;5007365;28;20018;-72
2022/03/15 06:50:35;;;;;;;5.78;1.75;;;;;;;;;;5007714;28;20690;-71
2022/03/15 06:53:02;;;;;;;1.77;1.67;;;;;;;;;;5003890;28;20195;-71
2022/03/15 06:55:29;;;;;;;3.65;1.67;;;;;;;;;;5008478;28;20041;-71
2022/03/15 06:57:55;;;;;;;4.05;1.73;;;;;;;;;;5003041;28;20018;-72
2022/03/15 07:00:21;;;;;;;1.90;1.70;;;;;;;;;;4993326;28;20500;-72
2022/03/15 07:02:48;;;;;;;3.65;1.52;;;;;;;;;;5006320;28;20085;-71
2022/03/15 07:05:14;;;;;;;1.67;1.58;;;;;;;;;;5006030;28;20034;-72
2022/03/15 07:07:40;;;;;;;4.07;1.48;;;;;;;;;;5005061;28;20315;-71
2022/03/15 07:10:06;;;;;;;2.58;1.70;;;;;;;;;;5006339;28;20026;-72
2022/03/15 07:12:33;;;;;;;2.13;1.50;;;;;;;;;;5004522;28;20032;-72
2022/03/15 07:15:03;;;;;;;4.63;1.95;;;;;;;;;;5005335;28;20952;-71
2022/03/15 07:17:32;;;;;;;3.72;1.55;;;;;;;;;;5007912;28;20022;-71
2022/03/15 07:19:59;;;;;;;4.15;1.70;;;;;;;;;;5006123;28;20475;-72
2022/03/15 07:22:26;;;;;;;3.78;1.58;;;;;;;;;;5004597;28;20021;-71
2022/03/15 07:24:52;;;;;;;3.10;1.70;;;;;;;;;;5003742;28;20547;-71
2022/03/15 07:27:19;;;;;;;5.97;1.80;;;;;;;;;;5006979;28;20045;-72
2022/03/15 07:29:45;;;;;;;3.17;1.80;;;;;;;;;;5005492;28;20081;-71
2022/03/15 07:32:11;;;;;;;3.78;2.00;;;;;;;;;;5004533;28;20033;-71
2022/03/15 07:34:38;;;;;;;1.85;1.55;;;;;;;;;;5008937;28;20036;-71
2022/03/15 07:37:04;;;;;;;5.50;1.77;;;;;;;;;;5005459;28;20037;-71
2022/03/15 07:39:30;;;;;;;2.38;1.70;;;;;;;;;;5008566;28;20050;-71
2022/03/15 07:41:57;;;;;;;3.45;1.67;;;;;;;;;;4988234;28;20047;-71
2022/03/15 07:44:23;;;;;;;2.17;1.45;;;;;;;;;;5007782;28;20507;-71
2022/03/15 07:46:50;;;;;;;3.38;1.88;;;;;;;;;;5003009;28;20105;-71
2022/03/15 07:49:19;;;;;;;3.15;1.42;;;;;;;;;;5008840;28;20052;-71
2022/03/15 07:51:46;;;;;;;4.78;1.90;;;;;;;;;;5006037;28;20026;-71
2022/03/15 07:54:12;;;;;;;2.92;1.73;;;;;;;;;;5006546;28;20034;-72
2022/03/15 07:56:39;;;;;;;1.63;1.20;;;;;;;;;;5005907;28;20020;-71
2022/03/15 07:59:05;;;;;;;2.63;1.40;;;;;;;;;;4992466;28;20399;-72
2022/03/15 08:01:31;;;;;;;2.38;2.17;;;;;;;;;;5006560;28;20105;-71
2022/03/15 08:03:57;;;;;;;5.05;1.60;;;;;;;;;;5008412;28;20033;-72
2022/03/15 08:06:23;;;;;;;2.63;2.20;;;;;;;;;;5006661;28;20382;-72
2022/03/15 08:08:53;;;;;;;5.57;1.95;;;;;;;;;;5005988;28;20423;-72
2022/03/15 08:11:19;;;;;;;1.33;1.23;;;;;;;;;;5006068;28;20029;-71
2022/03/15 08:13:45;;;;;;;9.00;2.05;;;;;;;;;;5003007;28;20100;-71
2022/03/15 08:16:11;;;;;;;3.20;1.60;;;;;;;;;;5003632;28;20065;-72
2022/03/15 08:18:38;;;;;;;7.20;3.13;;;;;;;;;;5005380;28;20021;-71
2022/03/15 08:21:04;;;;;;;2.15;1.60;;;;;;;;;;5004083;28;20484;-70
2022/03/15 08:23:31;;;;;;;2.58;1.48;;;;;;;;;;5004798;28;20062;-70
2022/03/15 08:25:57;;;;;;;3.38;1.45;;;;;;;;;;4987071;28;20092;-71
2022/03/15 08:28:24;;;;;;;3.85;1.67;;;;;;;;;;5005228;28;20428;-71
2022/03/15 08:30:51;;;;;;;2.75;1.70;;;;;;;;;;5001086;28;20033;-71
2022/03/15 08:33:17;;;;;;;2.45;1.67;;;;;;;;;;5008003;28;20030;-71
2022/03/15 08:35:43;;;;;;;4.95;1.77;;;;;;;;;;5007551;28;20026;-72
2022/03/15 08:38:11;;;;;;;3.35;1.65;;;;;;;;;;5007945;28;20046;-71
2022/03/15 08:40:37;;;;;;;4.43;1.58;;;;;;;;;;5006512;28;20033;-72
2022/03/15 08:43:04;;;;;;;2.70;2.03;;;;;;;;;;5008037;28;20038;-72
2022/03/15 08:45:30;;;;;;;4.68;2.05;;;;;;;;;;5002524;28;20546;-72
2022/03/15 08:47:56;;;;;;;1.88;1.52;;;;;;;;;;5005820;28;20067;-72
2022/03/15 08:50:23;;;;;;;5.13;1.83;;;;;;;;;;5006631;28;20369;-72
2022/03/15 08:52:49;;;;;;;2.67;1.77;;;;;;;;;;5002281;28;20037;-71
2022/03/15 08:55:15;;;;;;;2.65;1.35;;;;;;;;;;5003252;28;20083;-72
2022/03/15 08:57:41;;;;;;;5.43;1.80;;;;;;;;;;5004274;28;20057;-71
2022/03/15 09:00:09;;;;;;;5.47;1.90;;;;;;;;;;5002168;28;20034;-72
2022/03/15 09:02:35;;;;;;;3.60;1.58;;;;;;;;;;5004138;28;20038;-71
2022/03/15 09:05:01;;;;;;;4.70;1.60;;;;;;;;;;5001562;28;20065;-71
2022/03/15 09:07:28;;;;;;;4.75;1.98;;;;;;;;;;5007934;28;20484;-71
2022/03/15 09:09:54;;;;;;;4.10;2.47;;;;;;;;;;5008149;28;20049;-71
2022/03/15 09:12:21;;;;;;;3.08;2.42;;;;;;;;;;5007490;28;20030;-72
2022/03/15 09:14:48;;;;;;;1.50;1.40;;;;;;;;;;5003717;28;20030;-72
2022/03/15 09:17:14;;;;;;;4.30;2.00;;;;;;;;;;5006928;28;20101;-72
2022/03/15 09:19:40;;;;;;;3.58;1.60;;;;;;;;;;5005674;28;20550;-71
2022/03/15 09:22:07;;;;;;;7.47;2.58;;;;;;;;;;4991310;28;20487;-72
2022/03/15 09:24:35;;;;;;;8.23;2.55;;;;;;;;;;5007384;28;20442;-72
2022/03/15 09:27:01;;;;;;;4.93;2.50;;;;;;;;;;5006081;28;20034;-72
2022/03/15 09:29:27;;;;;;;2.70;2.00;;;;;;;;;;5002564;28;20065;-72
2022/03/15 09:31:53;;;;;;;4.45;2.10;;;;;;;;;;5002946;28;20461;-70
2022/03/15 09:34:22;;;;;;;5.68;2.15;;;;;;;;;;5003221;28;20018;-71
2022/03/15 09:36:48;;;;;;;6.00;2.53;;;;;;;;;;5003054;28;20448;-71
2022/03/15 09:39:15;;;;;;;5.28;2.00;;;;;;;;;;5003692;28;20559;-70
2022/03/15 09:41:41;;;;;;;2.75;2.13;;;;;;;;;;5006705;28;20315;-71
2022/03/15 09:44:09;;;;;;;3.40;1.80;;;;;;;;;;5006186;28;20591;-72
2022/03/15 09:46:41;;;;;;;3.38;1.88;;;;;;;;;;4987640;28;20065;-71
2022/03/15 09:49:08;;;;;;;6.95;1.92;;;;;;;;;;5001616;28;20022;-72
2022/03/15 09:51:37;;;;;;;4.60;1.95;;;;;;;;;;5003484;28;20026;-72
2022/03/15 09:54:06;;;;;;;4.32;2.03;;;;;;;;;;5007946;28;20528;-71
2022/03/15 09:56:38;;;;;;;2.60;1.73;;;;;;;;;;5005672;28;20872;-71
2022/03/15 09:59:15;;;;;;;3.30;1.95;;;;;;;;;;5004193;28;20029;-72
2022/03/15 10:01:42;;;;;;;5.90;2.40;;;;;;;;;;5005305;28;20030;-71
2022/03/15 10:04:08;;;;;;;5.10;1.90;;;;;;;;;;5005731;28;20049;-71
2022/03/15 10:06:38;;;;;;;3.08;1.90;;;;;;;;;;5005493;28;20111;-70
2022/03/15 10:09:04;;;;;;;4.30;2.10;;;;;;;;;;5005085;28;20030;-70
2022/03/15 10:11:31;;;;;;;4.07;1.63;;;;;;;;;;5004286;28;20045;-71
2022/03/15 10:13:58;;;;;;;10.10;1.95;;;;;;;;;;5006838;28;20030;-71
2022/03/15 10:16:31;;;;;;;6.35;2.08;;;;;;;;;;5004308;28;20100;-71
2022/03/15 10:18:58;;;;;;;5.20;1.92;;;;;;;;;;5000977;28;20408;-71
2022/03/15 10:21:27;;;;;;;5.07;2.58;;;;;;;;;;5005860;28;20021;-72
2022/03/15 10:23:58;;;;;;;6.82;2.22;;;;;;;;;;5006219;28;20038;-70
2022/03/15 10:26:25;;;;;;;4.35;2.15;;;;;;;;;;5005437;28;20033;-71
2022/03/15 10:28:53;;;;;;;4.00;2.05;;;;;;;;;;5006878;28;20569;-71
2022/03/15 10:31:22;;;;;;;4.95;1.83;;;;;;;;;;5005495;28;20061;-71
2022/03/15 10:33:50;;;;;;;4.53;1.85;;;;;;;;;;5005880;28;20022;-71
2022/03/15 10:36:19;;;;;;;2.47;1.77;;;;;;;;;;5005627;28;20061;-71
2022/03/15 10:38:50;;;;;;;3.83;1.83;;;;;;;;;;5005265;28;20045;-70
2022/03/15 10:41:16;;;;;;;3.28;1.67;;;;;;;;;;4985712;28;20523;-71
2022/03/15 10:43:43;;;;;;;4.25;1.73;;;;;;;;;;5000627;28;20049;-71
2022/03/15 10:46:10;;;;;;;1.77;1.63;;;;;;;;;;5001748;28;20057;-71
2022/03/15 10:48:37;;;;;;;4.72;2.20;;;;;;;;;;4985471;28;20047;-71
2022/03/15 10:51:07;;;;;;;5.32;2.13;;;;;;;;;;5007145;28;20107;-72
2022/03/15 10:53:44;;;;;;;4.78;1.90;;;;;;;;;;5004500;28;20484;-72
2022/03/15 10:56:16;;;;;;;6.07;2.17;;;;;;;;;;5007591;28;20026;-72
2022/03/15 10:58:52;;;;;;;2.63;1.77;;;;;;;;;;5003188;28;20523;-72
2022/03/15 11:01:20;;;;;;;4.75;2.10;;;;;;;;;;5001109;28;20022;-71
2022/03/15 11:03:59;;;;;;;6.00;2.05;;;;;;;;;;5004942;28;20431;-71
2022/03/15 11:06:44;;;;;;;3.78;2.00;;;;;;;;;;4998344;28;20030;-72
2022/03/15 11:09:18;;;;;;;8.30;2.20;;;;;;;;;;5002414;28;20050;-70
2022/03/15 11:11:46;;;;;;;6.53;2.10;;;;;;;;;;5002905;28;20547;-71
2022/03/15 11:14:13;;;;;;;11.30;2.17;;;;;;;;;;5001988;28;20602;-72
2022/03/15 11:16:41;;;;;;;4.38;2.20;;;;;;;;;;4998949;28;20079;-72
2022/03/15 11:19:08;;;;;;;5.82;2.25;;;;;;;;;;5007066;28;20034;-71
2022/03/15 11:21:34;;;;;;;4.38;2.00;;;;;;;;;;5005997;28;20112;-71
2022/03/15 11:24:02;;;;;;;4.15;2.00;;;;;;;;;;5004221;28;20750;-72
2022/03/15 11:26:33;;;;;;;4.60;2.30;;;;;;;;;;5007668;28;20030;-71
2022/03/15 11:28:59;;;;;;;5.65;2.30;;;;;;;;;;5003076;28;20695;-71
2022/03/15 11:31:25;;;;;;;4.47;2.03;;;;;;;;;;5004189;28;20048;-71
2022/03/15 11:33:54;;;;;;;6.15;2.00;;;;;;;;;;5004670;28;20025;-70
2022/03/15 11:36:23;;;;;;;2.97;2.47;;;;;;;;;;5001968;28;20112;-71
2022/03/15 11:38:51;;;;;;;6.30;2.53;;;;;;;;;;5003070;28;20050;-70
2022/03/15 11:41:17;;;;;;;5.43;2.58;;;;;;;;;;5005262;28;20048;-71
2022/03/15 11:44:00;;;;;;;7.32;2.63;;;;;;;;;;4986699;28;20122;-71
2022/03/15 11:46:36;;;;;;;7.60;2.38;;;;;;;;;;5004296;28;20026;-70
2022/03/15 11:49:15;;;;;;;6.70;2.42;;;;;;;;;;5002729;28;20572;-71
2022/03/15 11:51:53;;;;;;;6.32;2.63;;;;;;;;;;5001756;28;20115;-71
2022/03/15 11:54:19;;;;;;;6.15;2.08;;;;;;;;;;5003845;28;20491;-71
2022/03/15 11:56:51;;;;;;;4.35;2.28;;;;;;;;;;5002290;28;20025;-71
2022/03/15 11:59:17;;;;;;;5.50;2.28;;;;;;;;;;5006038;28;20026;-71
2022/03/15 12:01:44;;;;;;;6.60;2.40;;;;;;;;;;5005352;28;20034;-71
2022/03/15 12:04:10;;;;;;;4.80;2.10;;;;;;;;;;5005084;28;20068;-71
2022/03/15 12:06:36;;;;;;;4.60;2.22;;;;;;;;;;5004698;28;20388;-71
2022/03/15 12:09:10;;;;;;;4.85;2.10;;;;;;;;;;5002473;28;20029;-71
2022/03/15 12:11:39;;;;;;;6.30;2.17;;;;;;;;;;5001514;28;20117;-71
2022/03/15 12:14:09;;;;;;;5.68;2.33;;;;;;;;;;5008013;28;20116;-71
2022/03/15 12:16:37;;;;;;;4.85;2.88;;;;;;;;;;5002345;28;20022;-73
2022/03/15 12:19:27;;;;;;;6.57;3.78;;;;;;;;;;5006200;28;20028;-71
2022/03/15 12:21:57;;;;;;;3.45;2.28;;;;;;;;;;5000403;28;20030;-70
2022/03/15 12:24:34;;;;;;;5.03;2.40;;;;;;;;;;5000825;28;20022;-71
2022/03/15 12:27:02;;;;;;;4.00;2.03;;;;;;;;;;5003910;28;20030;-71
2022/03/15 12:29:28;;;;;;;5.07;2.03;;;;;;;;;;5003330;28;20037;-70
2022/03/15 12:31:55;;;;;;;9.20;2.05;;;;;;;;;;5003874;28;20037;-70
2022/03/15 12:34:22;;;;;;;5.03;2.97;;;;;;;;;;5004063;28;20143;-70
2022/03/15 12:36:50;;;;;;;4.45;2.20;;;;;;;;;;5003840;28;20156;-71
2022/03/15 12:39:21;;;;;;;4.82;2.30;;;;;;;;;;5003490;28;20092;-71
2022/03/15 12:41:48;;;;;;;4.75;2.40;;;;;;;;;;5003329;28;20096;-71
2022/03/15 12:44:14;;;;;;;6.25;2.28;;;;;;;;;;5007286;28;20105;-71
2022/03/15 12:46:42;;;;;;;4.38;1.77;;;;;;;;;;5003760;28;20026;-72
2022/03/15 12:49:09;;;;;;;3.60;1.90;;;;;;;;;;5008514;28;20104;-71
2022/03/15 12:51:43;;;;;;;9.02;2.25;;;;;;;;;;5007656;28;20026;-71
2022/03/15 12:54:13;;;;;;;5.45;2.45;;;;;;;;;;5004114;28;20035;-72
2022/03/15 12:57:02;;;;;;;4.18;2.65;;;;;;;;;;5006679;28;20030;-71
2022/03/15 12:59:29;;;;;;;3.63;1.95;;;;;;;;;;5004789;28;20092;-71
2022/03/15 13:01:55;;;;;;;3.42;2.05;;;;;;;;;;4991330;28;20487;-72
2022/03/15 13:04:21;;;;;;;6.68;2.38;;;;;;;;;;5006423;28;20450;-70
2022/03/15 13:06:48;;;;;;;7.55;2.67;;;;;;;;;;5000165;28;20160;-74
2022/03/15 13:09:24;;;;;;;8.15;2.30;;;;;;;;;;5003099;28;20107;-72
2022/03/15 13:11:51;;;;;;;5.47;2.22;;;;;;;;;;5003035;28;20116;-72
2022/03/15 13:14:27;;;;;;;5.88;2.42;;;;;;;;;;5006641;28;20150;-72
2022/03/15 13:16:57;;;;;;;2.72;1.85;;;;;;;;;;5006373;28;20042;-72
2022/03/15 13:19:34;;;;;;;5.28;2.03;;;;;;;;;;5008418;28;20692;-72
2022/03/15 13:22:00;;;;;;;5.43;2.10;;;;;;;;;;4989843;28;20141;-72
2022/03/15 13:24:31;;;;;;;5.68;2.20;;;;;;;;;;4989597;28;20049;-71
2022/03/15 13:26:57;;;;;;;5.28;2.58;;;;;;;;;;5007022;28;20033;-71
2022/03/15 13:29:26;;;;;;;6.30;2.10;;;;;;;;;;5007061;28;20018;-71
2022/03/15 13:31:53;;;;;;;3.80;2.03;;;;;;;;;;5006394;28;20033;-71
2022/03/15 13:34:29;;;;;;;4.60;1.95;;;;;;;;;;5004190;28;20049;-72
2022/03/15 13:37:04;;;;;;;6.68;2.92;;;;;;;;;;5003570;28;20052;-72
2022/03/15 13:39:30;;;;;;;;;;;;;;;;;;5004905;28;20488;-72
2022/03/15 13:41:58;;;;;;;5.40;2.17;;;;;;;;;;5005037;28;19920;-72
2022/03/15 13:44:26;;;;;;;5.97;2.95;;;;;;;;;;5005289;28;20025;-73
2022/03/15 13:46:54;;;;;;;8.20;2.63;;;;;;;;;;5006969;28;20033;-72
2022/03/15 13:49:24;;;;;;;7.40;2.90;;;;;;;;;;5005874;28;20026;-72
2022/03/15 13:52:00;;;;;;;7.78;3.67;;;;;;;;;;5001987;28;20026;-72
2022/03/15 13:54:26;;;;;;;4.13;2.17;;;;;;;;;;4988955;28;20400;-71
2022/03/15 13:56:53;;;;;;;7.85;2.55;;;;;;;;;;5005734;28;20567;-71
2022/03/15 13:59:27;;;;;;;6.60;2.70;;;;;;;;;;5006212;28;20034;-72
2022/03/15 14:02:00;;;;;;;8.10;3.33;;;;;;;;;;5005637;28;20025;-73
2022/03/15 14:04:29;;;;;;;9.95;2.83;;;;;;;;;;5001268;28;20049;-71
2022/03/15 14:06:59;;;;;;;4.70;2.63;;;;;;;;;;5001030;28;20108;-71
2022/03/15 14:09:27;;;;;;;5.65;2.10;;;;;;;;;;5003416;28;20061;-71
2022/03/15 14:12:08;;;;;;;6.28;2.50;;;;;;;;;;5006302;28;20029;-71
2022/03/15 14:14:49;;;;;;;6.93;2.97;;;;;;;;;;5007253;28;20036;-72
2022/03/15 14:17:16;;;;;;;8.88;3.65;;;;;;;;;;5006111;28;20081;-72
2022/03/15 14:19:44;;;;;;;5.10;2.40;;;;;;;;;;5002822;28;20034;-71
2022/03/15 14:22:12;;;;;;;5.28;2.22;;;;;;;;;;5003998;28;20037;-71
2022/03/15 14:24:39;;;;;;;7.05;2.42;;;;;;;;;;4983246;28;20092;-71
2022/03/15 14:27:06;;;;;;;7.05;2.40;;;;;;;;;;5002391;28;20532;-71
2022/03/15 14:29:36;;;;;;;3.47;2.50;;;;;;;;;;4998574;28;20590;-72
2022/03/15 14:32:12;;;;;;;6.22;2.50;;;;;;;;;;4999461;28;20018;-72
2022/03/15 14:34:51;;;;;;;40.28;15.68;;;;;;;;;;4999761;28;20424;-71
2022/03/15 14:37:18;;;;;;;26.23;14.18;;;;;;;;;;4999364;28;20078;-71
2022/03/15 14:39:48;;;;;;;9.63;6.57;;;;;;;;;;4981492;28;20053;-71
2022/03/15 14:42:15;;;;;;;13.30;7.43;;;;;;;;;;5004608;28;20080;-72
2022/03/15 14:44:42;;;;;;;8.52;3.55;;;;;;;;;;5003001;28;20514;-72
2022/03/15 14:47:13;;;;;;;33.80;15.82;;;;;;;;;;5004644;28;20066;-72
2022/03/15 14:49:41;;;;;;;35.45;16.98;;;;;;;;;;5004104;28;20037;-71